sensor_id;sensor_type;location;lat;lon;timestamp;temperature;humidity
49579;DHT22;35483;50.828;3.228;2022-07-01T00:02:22;16.50;82.80
49579;DHT22;35483;50.828;3.228;2022-07-01T00:04:49;16.60;82.70
49579;DHT22;35483;50.828;3.228;2022-07-01T00:07:15;16.50;82.80
49579;DHT22;35483;50.828;3.228;2022-07-01T00:09:42;16.60;82.80
49579;DHT22;35483;50.828;3.228;2022-07-01T00:12:09;16.60;83.10
49579;DHT22;35483;50.828;3.228;2022-07-01T00:14:35;16.50;83.10
49579;DHT22;35483;50.828;3.228;2022-07-01T00:17:01;16.50;82.80
49579;DHT22;35483;50.828;3.228;2022-07-01T00:19:27;16.40;82.70
49579;DHT22;35483;50.828;3.228;2022-07-01T00:21:53;16.40;82.70
49579;DHT22;35483;50.828;3.228;2022-07-01T00:24:20;16.40;82.80
49579;DHT22;35483;50.828;3.228;2022-07-01T00:26:45;16.40;83.70
49579;DHT22;35483;50.828;3.228;2022-07-01T00:29:11;16.30;83.00
49579;DHT22;35483;50.828;3.228;2022-07-01T00:31:37;16.30;83.00
49579;DHT22;35483;50.828;3.228;2022-07-01T00:34:03;16.20;82.90
49579;DHT22;35483;50.828;3.228;2022-07-01T00:36:29;16.20;82.90
49579;DHT22;35483;50.828;3.228;2022-07-01T00:38:55;16.10;83.00
49579;DHT22;35483;50.828;3.228;2022-07-01T00:41:23;16.10;83.20
49579;DHT22;35483;50.828;3.228;2022-07-01T00:43:48;16.10;83.20
49579;DHT22;35483;50.828;3.228;2022-07-01T00:46:14;16.00;83.40
49579;DHT22;35483;50.828;3.228;2022-07-01T00:48:40;16.00;83.40
49579;DHT22;35483;50.828;3.228;2022-07-01T00:51:07;15.90;83.60
49579;DHT22;35483;50.828;3.228;2022-07-01T00:53:33;15.90;83.80
49579;DHT22;35483;50.828;3.228;2022-07-01T00:56:00;15.80;83.70
49579;DHT22;35483;50.828;3.228;2022-07-01T00:58:27;15.80;83.80
49579;DHT22;35483;50.828;3.228;2022-07-01T01:00:55;15.80;83.70
49579;DHT22;35483;50.828;3.228;2022-07-01T01:03:21;15.70;83.80
49579;DHT22;35483;50.828;3.228;2022-07-01T01:05:47;15.70;83.80
49579;DHT22;35483;50.828;3.228;2022-07-01T01:08:14;15.70;83.70
49579;DHT22;35483;50.828;3.228;2022-07-01T01:10:42;15.70;83.40
49579;DHT22;35483;50.828;3.228;2022-07-01T01:13:09;15.60;83.50
49579;DHT22;35483;50.828;3.228;2022-07-01T01:15:35;15.60;83.40
49579;DHT22;35483;50.828;3.228;2022-07-01T01:18:02;15.60;83.50
49579;DHT22;35483;50.828;3.228;2022-07-01T01:20:36;15.50;83.50
49579;DHT22;35483;50.828;3.228;2022-07-01T01:23:02;15.50;84.40
49579;DHT22;35483;50.828;3.228;2022-07-01T01:25:33;15.50;83.40
49579;DHT22;35483;50.828;3.228;2022-07-01T01:28:00;15.50;83.80
49579;DHT22;35483;50.828;3.228;2022-07-01T01:30:26;15.40;83.70
49579;DHT22;35483;50.828;3.228;2022-07-01T01:32:52;15.40;83.50
49579;DHT22;35483;50.828;3.228;2022-07-01T01:35:19;15.30;83.40
49579;DHT22;35483;50.828;3.228;2022-07-01T01:37:45;15.40;83.40
49579;DHT22;35483;50.828;3.228;2022-07-01T01:40:11;15.30;83.30
49579;DHT22;35483;50.828;3.228;2022-07-01T01:42:40;15.30;83.30
49579;DHT22;35483;50.828;3.228;2022-07-01T01:45:06;15.30;83.20
49579;DHT22;35483;50.828;3.228;2022-07-01T01:47:32;15.30;83.20
49579;DHT22;35483;50.828;3.228;2022-07-01T01:49:58;15.30;83.20
49579;DHT22;35483;50.828;3.228;2022-07-01T01:52:24;15.30;83.30
49579;DHT22;35483;50.828;3.228;2022-07-01T01:54:50;15.20;83.40
49579;DHT22;35483;50.828;3.228;2022-07-01T01:57:16;15.20;83.30
49579;DHT22;35483;50.828;3.228;2022-07-01T01:59:42;15.20;83.40
49579;DHT22;35483;50.828;3.228;2022-07-01T02:02:08;15.20;83.40
49579;DHT22;35483;50.828;3.228;2022-07-01T02:04:34;15.20;83.50
49579;DHT22;35483;50.828;3.228;2022-07-01T02:07:01;15.10;83.60
49579;DHT22;35483;50.828;3.228;2022-07-01T02:09:27;15.10;84.10
49579;DHT22;35483;50.828;3.228;2022-07-01T02:11:54;15.10;84.00
49579;DHT22;35483;50.828;3.228;2022-07-01T02:14:20;15.10;83.90
49579;DHT22;35483;50.828;3.228;2022-07-01T02:16:46;15.00;84.20
49579;DHT22;35483;50.828;3.228;2022-07-01T02:19:11;15.00;84.10
49579;DHT22;35483;50.828;3.228;2022-07-01T02:21:37;15.00;84.50
49579;DHT22;35483;50.828;3.228;2022-07-01T02:24:03;15.00;84.10
49579;DHT22;35483;50.828;3.228;2022-07-01T02:26:29;14.90;84.10
49579;DHT22;35483;50.828;3.228;2022-07-01T02:28:54;14.90;84.20
49579;DHT22;35483;50.828;3.228;2022-07-01T02:31:20;14.90;84.50
49579;DHT22;35483;50.828;3.228;2022-07-01T02:33:46;14.90;84.50
49579;DHT22;35483;50.828;3.228;2022-07-01T02:36:12;14.80;84.50
49579;DHT22;35483;50.828;3.228;2022-07-01T02:38:38;14.80;84.50
49579;DHT22;35483;50.828;3.228;2022-07-01T02:41:03;14.80;84.60
49579;DHT22;35483;50.828;3.228;2022-07-01T02:43:29;14.80;84.70
49579;DHT22;35483;50.828;3.228;2022-07-01T02:45:59;14.80;84.60
49579;DHT22;35483;50.828;3.228;2022-07-01T02:48:24;14.80;84.80
49579;DHT22;35483;50.828;3.228;2022-07-01T02:50:50;14.70;84.80
49579;DHT22;35483;50.828;3.228;2022-07-01T02:53:16;14.70;84.70
49579;DHT22;35483;50.828;3.228;2022-07-01T02:55:41;14.70;84.40
49579;DHT22;35483;50.828;3.228;2022-07-01T02:58:07;14.70;84.60
49579;DHT22;35483;50.828;3.228;2022-07-01T03:00:33;14.70;84.60
49579;DHT22;35483;50.828;3.228;2022-07-01T03:02:58;14.70;84.50
49579;DHT22;35483;50.828;3.228;2022-07-01T03:05:24;14.70;84.80
49579;DHT22;35483;50.828;3.228;2022-07-01T03:07:50;14.60;84.70
49579;DHT22;35483;50.828;3.228;2022-07-01T03:10:16;14.60;84.70
49579;DHT22;35483;50.828;3.228;2022-07-01T03:12:42;14.60;84.50
49579;DHT22;35483;50.828;3.228;2022-07-01T03:15:15;14.60;84.90
49579;DHT22;35483;50.828;3.228;2022-07-01T03:17:45;14.60;85.40
49579;DHT22;35483;50.828;3.228;2022-07-01T03:20:13;14.60;85.10
49579;DHT22;35483;50.828;3.228;2022-07-01T03:22:39;14.50;85.00
49579;DHT22;35483;50.828;3.228;2022-07-01T03:25:06;14.50;84.80
49579;DHT22;35483;50.828;3.228;2022-07-01T03:27:32;14.50;84.50
49579;DHT22;35483;50.828;3.228;2022-07-01T03:29:58;14.50;84.60
49579;DHT22;35483;50.828;3.228;2022-07-01T03:32:25;14.50;84.90
49579;DHT22;35483;50.828;3.228;2022-07-01T03:34:52;14.50;84.70
49579;DHT22;35483;50.828;3.228;2022-07-01T03:37:19;14.50;85.00
49579;DHT22;35483;50.828;3.228;2022-07-01T03:39:45;14.50;84.90
49579;DHT22;35483;50.828;3.228;2022-07-01T03:42:11;14.40;84.70
49579;DHT22;35483;50.828;3.228;2022-07-01T03:44:38;14.40;84.80
49579;DHT22;35483;50.828;3.228;2022-07-01T03:47:05;14.40;84.60
49579;DHT22;35483;50.828;3.228;2022-07-01T03:49:32;14.40;85.00
49579;DHT22;35483;50.828;3.228;2022-07-01T03:51:58;14.40;84.80
49579;DHT22;35483;50.828;3.228;2022-07-01T03:54:23;14.40;84.70
49579;DHT22;35483;50.828;3.228;2022-07-01T03:57:07;14.40;84.60
49579;DHT22;35483;50.828;3.228;2022-07-01T03:59:38;14.40;85.80
49579;DHT22;35483;50.828;3.228;2022-07-01T04:02:04;14.40;84.70
49579;DHT22;35483;50.828;3.228;2022-07-01T04:04:31;14.40;84.20
49579;DHT22;35483;50.828;3.228;2022-07-01T04:06:58;14.40;84.20
49579;DHT22;35483;50.828;3.228;2022-07-01T04:09:25;14.40;84.20
49579;DHT22;35483;50.828;3.228;2022-07-01T04:11:52;14.30;84.80
49579;DHT22;35483;50.828;3.228;2022-07-01T04:14:19;14.30;84.30
49579;DHT22;35483;50.828;3.228;2022-07-01T04:16:45;14.30;84.30
49579;DHT22;35483;50.828;3.228;2022-07-01T04:19:11;14.30;84.50
49579;DHT22;35483;50.828;3.228;2022-07-01T04:21:38;14.30;84.30
49579;DHT22;35483;50.828;3.228;2022-07-01T04:24:22;14.30;84.30
49579;DHT22;35483;50.828;3.228;2022-07-01T04:26:50;14.40;84.30
49579;DHT22;35483;50.828;3.228;2022-07-01T04:29:16;14.30;84.60
49579;DHT22;35483;50.828;3.228;2022-07-01T04:31:42;14.30;84.20
49579;DHT22;35483;50.828;3.228;2022-07-01T04:34:08;14.40;84.40
49579;DHT22;35483;50.828;3.228;2022-07-01T04:36:35;14.40;85.00
49579;DHT22;35483;50.828;3.228;2022-07-01T04:39:02;14.50;84.70
49579;DHT22;35483;50.828;3.228;2022-07-01T04:41:28;14.50;84.30
49579;DHT22;35483;50.828;3.228;2022-07-01T04:44:13;14.50;84.40
49579;DHT22;35483;50.828;3.228;2022-07-01T04:46:39;14.60;84.80
49579;DHT22;35483;50.828;3.228;2022-07-01T04:49:05;14.60;84.30
49579;DHT22;35483;50.828;3.228;2022-07-01T04:51:30;14.60;84.30
49579;DHT22;35483;50.828;3.228;2022-07-01T04:54:00;14.70;84.20
49579;DHT22;35483;50.828;3.228;2022-07-01T04:56:25;14.70;84.50
49579;DHT22;35483;50.828;3.228;2022-07-01T04:58:52;14.70;84.10
49579;DHT22;35483;50.828;3.228;2022-07-01T05:01:18;14.80;84.50
49579;DHT22;35483;50.828;3.228;2022-07-01T05:03:43;14.80;84.50
49579;DHT22;35483;50.828;3.228;2022-07-01T05:06:09;14.90;84.00
49579;DHT22;35483;50.828;3.228;2022-07-01T05:08:35;14.90;84.30
49579;DHT22;35483;50.828;3.228;2022-07-01T05:11:01;15.00;84.30
49579;DHT22;35483;50.828;3.228;2022-07-01T05:13:27;15.00;84.20
49579;DHT22;35483;50.828;3.228;2022-07-01T05:15:53;15.00;84.40
49579;DHT22;35483;50.828;3.228;2022-07-01T05:18:18;15.10;83.90
49579;DHT22;35483;50.828;3.228;2022-07-01T05:21:03;15.10;83.90
49579;DHT22;35483;50.828;3.228;2022-07-01T05:23:47;15.20;83.90
49579;DHT22;35483;50.828;3.228;2022-07-01T05:26:12;15.20;83.80
49579;DHT22;35483;50.828;3.228;2022-07-01T05:28:42;15.30;83.70
49579;DHT22;35483;50.828;3.228;2022-07-01T05:31:08;15.30;84.00
49579;DHT22;35483;50.828;3.228;2022-07-01T05:33:34;15.40;84.30
49579;DHT22;35483;50.828;3.228;2022-07-01T05:36:00;16.00;83.30
49579;DHT22;35483;50.828;3.228;2022-07-01T05:38:26;17.70;79.10
49579;DHT22;35483;50.828;3.228;2022-07-01T05:40:52;20.10;73.20
49579;DHT22;35483;50.828;3.228;2022-07-01T05:43:19;22.00;68.30
49579;DHT22;35483;50.828;3.228;2022-07-01T05:45:47;23.80;64.50
49579;DHT22;35483;50.828;3.228;2022-07-01T05:48:14;24.50;62.20
49579;DHT22;35483;50.828;3.228;2022-07-01T05:50:41;23.60;63.80
49579;DHT22;35483;50.828;3.228;2022-07-01T05:53:07;22.80;66.30
49579;DHT22;35483;50.828;3.228;2022-07-01T05:55:34;22.80;66.90
49579;DHT22;35483;50.828;3.228;2022-07-01T05:58:01;23.30;66.50
49579;DHT22;35483;50.828;3.228;2022-07-01T06:00:28;24.60;63.80
49579;DHT22;35483;50.828;3.228;2022-07-01T06:02:55;25.80;61.30
49579;DHT22;35483;50.828;3.228;2022-07-01T06:05:21;26.80;59.40
49579;DHT22;35483;50.828;3.228;2022-07-01T06:07:49;27.70;57.90
49579;DHT22;35483;50.828;3.228;2022-07-01T06:10:16;28.60;56.70
49579;DHT22;35483;50.828;3.228;2022-07-01T06:12:43;29.30;55.60
49579;DHT22;35483;50.828;3.228;2022-07-01T06:15:10;29.70;55.00
49579;DHT22;35483;50.828;3.228;2022-07-01T06:17:38;30.10;54.30
49579;DHT22;35483;50.828;3.228;2022-07-01T06:20:04;30.40;53.90
49579;DHT22;35483;50.828;3.228;2022-07-01T06:22:30;28.40;55.50
49579;DHT22;35483;50.828;3.228;2022-07-01T06:24:57;25.80;59.80
49579;DHT22;35483;50.828;3.228;2022-07-01T06:27:24;23.70;64.30
49579;DHT22;35483;50.828;3.228;2022-07-01T06:29:51;22.20;67.70
49579;DHT22;35483;50.828;3.228;2022-07-01T06:32:18;21.10;70.20
49579;DHT22;35483;50.828;3.228;2022-07-01T06:34:45;20.40;72.10
49579;DHT22;35483;50.828;3.228;2022-07-01T06:37:11;19.80;73.70
49579;DHT22;35483;50.828;3.228;2022-07-01T06:39:38;19.40;74.60
49579;DHT22;35483;50.828;3.228;2022-07-01T06:42:04;19.10;75.30
49579;DHT22;35483;50.828;3.228;2022-07-01T06:44:30;18.80;76.10
49579;DHT22;35483;50.828;3.228;2022-07-01T06:46:56;18.60;76.50
49579;DHT22;35483;50.828;3.228;2022-07-01T06:49:22;18.40;76.80
49579;DHT22;35483;50.828;3.228;2022-07-01T06:51:47;18.30;77.20
49579;DHT22;35483;50.828;3.228;2022-07-01T06:54:14;18.20;77.40
49579;DHT22;35483;50.828;3.228;2022-07-01T06:56:43;18.10;77.60
49579;DHT22;35483;50.828;3.228;2022-07-01T06:59:09;18.10;77.70
49579;DHT22;35483;50.828;3.228;2022-07-01T07:01:35;18.00;77.90
49579;DHT22;35483;50.828;3.228;2022-07-01T07:04:01;18.00;78.20
49579;DHT22;35483;50.828;3.228;2022-07-01T07:06:27;17.90;78.40
49579;DHT22;35483;50.828;3.228;2022-07-01T07:08:53;17.90;78.50
49579;DHT22;35483;50.828;3.228;2022-07-01T07:11:19;18.00;78.30
49579;DHT22;35483;50.828;3.228;2022-07-01T07:13:45;18.10;78.30
49579;DHT22;35483;50.828;3.228;2022-07-01T07:16:11;18.10;78.20
49579;DHT22;35483;50.828;3.228;2022-07-01T07:18:37;18.20;78.20
49579;DHT22;35483;50.828;3.228;2022-07-01T07:21:02;18.20;78.20
49579;DHT22;35483;50.828;3.228;2022-07-01T07:23:29;18.20;78.30
49579;DHT22;35483;50.828;3.228;2022-07-01T07:25:55;18.20;78.30
49579;DHT22;35483;50.828;3.228;2022-07-01T07:28:20;18.20;78.40
49579;DHT22;35483;50.828;3.228;2022-07-01T07:30:46;18.20;78.50
49579;DHT22;35483;50.828;3.228;2022-07-01T07:33:12;18.20;78.30
49579;DHT22;35483;50.828;3.228;2022-07-01T07:35:37;18.20;78.30
49579;DHT22;35483;50.828;3.228;2022-07-01T07:38:03;18.20;78.30
49579;DHT22;35483;50.828;3.228;2022-07-01T07:40:29;18.30;78.40
49579;DHT22;35483;50.828;3.228;2022-07-01T07:42:55;18.30;78.40
49579;DHT22;35483;50.828;3.228;2022-07-01T07:45:21;18.30;78.30
49579;DHT22;35483;50.828;3.228;2022-07-01T07:47:48;18.30;78.30
49579;DHT22;35483;50.828;3.228;2022-07-01T07:50:15;18.30;78.30
49579;DHT22;35483;50.828;3.228;2022-07-01T07:52:41;18.30;78.20
49579;DHT22;35483;50.828;3.228;2022-07-01T07:55:09;18.30;78.20
49579;DHT22;35483;50.828;3.228;2022-07-01T07:57:39;18.30;78.00
49579;DHT22;35483;50.828;3.228;2022-07-01T08:00:07;18.30;77.50
49579;DHT22;35483;50.828;3.228;2022-07-01T08:02:33;18.30;78.20
49579;DHT22;35483;50.828;3.228;2022-07-01T08:04:59;18.30;78.30
49579;DHT22;35483;50.828;3.228;2022-07-01T08:07:25;18.40;78.10
49579;DHT22;35483;50.828;3.228;2022-07-01T08:09:51;18.50;78.10
49579;DHT22;35483;50.828;3.228;2022-07-01T08:12:17;18.80;78.40
49579;DHT22;35483;50.828;3.228;2022-07-01T08:14:43;18.90;77.60
49579;DHT22;35483;50.828;3.228;2022-07-01T08:17:09;19.00;77.60
49579;DHT22;35483;50.828;3.228;2022-07-01T08:19:35;19.10;77.30
49579;DHT22;35483;50.828;3.228;2022-07-01T08:22:01;19.30;77.10
49579;DHT22;35483;50.828;3.228;2022-07-01T08:24:27;19.40;77.00
49579;DHT22;35483;50.828;3.228;2022-07-01T08:26:52;19.60;76.70
49579;DHT22;35483;50.828;3.228;2022-07-01T08:29:18;19.70;76.50
49579;DHT22;35483;50.828;3.228;2022-07-01T08:31:44;19.90;76.30
49579;DHT22;35483;50.828;3.228;2022-07-01T08:34:10;20.00;75.90
49579;DHT22;35483;50.828;3.228;2022-07-01T08:36:35;20.30;75.90
49579;DHT22;35483;50.828;3.228;2022-07-01T08:39:02;20.50;75.60
49579;DHT22;35483;50.828;3.228;2022-07-01T08:41:28;20.70;74.60
49579;DHT22;35483;50.828;3.228;2022-07-01T08:43:54;20.90;75.00
49579;DHT22;35483;50.828;3.228;2022-07-01T08:46:21;21.00;74.70
49579;DHT22;35483;50.828;3.228;2022-07-01T08:48:47;21.10;74.50
49579;DHT22;35483;50.828;3.228;2022-07-01T08:51:13;21.10;74.50
49579;DHT22;35483;50.828;3.228;2022-07-01T08:53:38;21.10;74.50
49579;DHT22;35483;50.828;3.228;2022-07-01T08:56:04;21.20;74.60
49579;DHT22;35483;50.828;3.228;2022-07-01T08:58:49;21.20;74.10
49579;DHT22;35483;50.828;3.228;2022-07-01T09:03:43;21.30;73.80
49579;DHT22;35483;50.828;3.228;2022-07-01T09:06:23;21.40;73.20
49579;DHT22;35483;50.828;3.228;2022-07-01T09:08:51;21.40;73.70
49579;DHT22;35483;50.828;3.228;2022-07-01T09:13:45;21.50;73.90
49579;DHT22;35483;50.828;3.228;2022-07-01T09:16:16;21.50;73.30
49579;DHT22;35483;50.828;3.228;2022-07-01T09:19:02;21.60;73.40
49579;DHT22;35483;50.828;3.228;2022-07-01T09:21:31;21.60;72.30
49579;DHT22;35483;50.828;3.228;2022-07-01T09:27:07;21.50;73.30
49579;DHT22;35483;50.828;3.228;2022-07-01T09:29:52;21.50;73.80
49579;DHT22;35483;50.828;3.228;2022-07-01T09:32:20;21.50;73.20
49579;DHT22;35483;50.828;3.228;2022-07-01T09:34:48;21.40;73.80
49579;DHT22;35483;50.828;3.228;2022-07-01T09:37:22;21.30;73.90
49579;DHT22;35483;50.828;3.228;2022-07-01T09:39:52;21.50;73.80
49579;DHT22;35483;50.828;3.228;2022-07-01T09:42:20;21.60;73.50
49579;DHT22;35483;50.828;3.228;2022-07-01T09:47:25;21.80;72.00
49579;DHT22;35483;50.828;3.228;2022-07-01T09:49:51;21.80;72.20
49579;DHT22;35483;50.828;3.228;2022-07-01T09:52:18;21.80;72.60
49579;DHT22;35483;50.828;3.228;2022-07-01T09:54:45;21.70;72.90
49579;DHT22;35483;50.828;3.228;2022-07-01T09:57:14;21.60;72.90
49579;DHT22;35483;50.828;3.228;2022-07-01T09:59:41;21.50;72.90
49579;DHT22;35483;50.828;3.228;2022-07-01T10:02:11;21.20;72.90
49579;DHT22;35483;50.828;3.228;2022-07-01T10:04:40;21.00;73.50
49579;DHT22;35483;50.828;3.228;2022-07-01T10:07:37;20.90;73.60
49579;DHT22;35483;50.828;3.228;2022-07-01T10:12:42;20.70;74.00
49579;DHT22;35483;50.828;3.228;2022-07-01T10:15:10;20.60;72.30
49579;DHT22;35483;50.828;3.228;2022-07-01T10:17:44;20.40;74.10
49579;DHT22;35483;50.828;3.228;2022-07-01T10:20:13;20.30;73.90
49579;DHT22;35483;50.828;3.228;2022-07-01T10:22:39;20.30;74.20
49579;DHT22;35483;50.828;3.228;2022-07-01T10:25:35;20.30;74.00
49579;DHT22;35483;50.828;3.228;2022-07-01T10:30:51;20.20;72.50
49579;DHT22;35483;50.828;3.228;2022-07-01T10:33:33;20.20;74.30
49579;DHT22;35483;50.828;3.228;2022-07-01T10:36:09;20.20;72.80
49579;DHT22;35483;50.828;3.228;2022-07-01T10:38:35;20.40;72.40
49579;DHT22;35483;50.828;3.228;2022-07-01T10:41:24;20.50;73.70
49579;DHT22;35483;50.828;3.228;2022-07-01T10:43:51;20.70;73.20
49579;DHT22;35483;50.828;3.228;2022-07-01T10:49:06;21.20;72.40
49579;DHT22;35483;50.828;3.228;2022-07-01T10:51:48;21.30;72.60
49579;DHT22;35483;50.828;3.228;2022-07-01T11:02:33;21.10;72.90
49579;DHT22;35483;50.828;3.228;2022-07-01T11:05:04;21.00;73.80
49579;DHT22;35483;50.828;3.228;2022-07-01T11:07:33;20.80;74.00
49579;DHT22;35483;50.828;3.228;2022-07-01T11:09:59;20.60;74.20
49579;DHT22;35483;50.828;3.228;2022-07-01T11:12:28;20.40;74.40
49579;DHT22;35483;50.828;3.228;2022-07-01T11:14:56;20.20;74.80
49579;DHT22;35483;50.828;3.228;2022-07-01T11:17:28;20.10;75.20
49579;DHT22;35483;50.828;3.228;2022-07-01T11:19:56;20.00;75.60
49579;DHT22;35483;50.828;3.228;2022-07-01T11:22:29;19.90;75.70
49579;DHT22;35483;50.828;3.228;2022-07-01T11:25:01;20.00;75.70
49579;DHT22;35483;50.828;3.228;2022-07-01T11:27:28;20.00;75.30
49579;DHT22;35483;50.828;3.228;2022-07-01T11:29:59;20.10;75.30
49579;DHT22;35483;50.828;3.228;2022-07-01T11:32:26;20.10;75.80
49579;DHT22;35483;50.828;3.228;2022-07-01T11:34:52;20.00;75.70
49579;DHT22;35483;50.828;3.228;2022-07-01T11:37:18;19.90;76.10
49579;DHT22;35483;50.828;3.228;2022-07-01T11:40:06;19.80;76.40
49579;DHT22;35483;50.828;3.228;2022-07-01T11:42:34;19.70;76.50
49579;DHT22;35483;50.828;3.228;2022-07-01T11:45:00;19.60;76.80
49579;DHT22;35483;50.828;3.228;2022-07-01T11:47:26;19.70;76.80
49579;DHT22;35483;50.828;3.228;2022-07-01T11:49:53;19.90;76.70
49579;DHT22;35483;50.828;3.228;2022-07-01T11:52:21;20.00;76.50
49579;DHT22;35483;50.828;3.228;2022-07-01T11:54:49;20.30;76.00
49579;DHT22;35483;50.828;3.228;2022-07-01T11:57:20;20.50;75.70
49579;DHT22;35483;50.828;3.228;2022-07-01T11:59:48;20.60;75.40
49579;DHT22;35483;50.828;3.228;2022-07-01T12:02:16;20.70;75.20
49579;DHT22;35483;50.828;3.228;2022-07-01T12:04:43;20.80;75.20
49579;DHT22;35483;50.828;3.228;2022-07-01T12:07:10;20.80;75.00
49579;DHT22;35483;50.828;3.228;2022-07-01T12:09:37;20.80;74.90
49579;DHT22;35483;50.828;3.228;2022-07-01T12:12:03;20.90;74.90
49579;DHT22;35483;50.828;3.228;2022-07-01T12:14:32;21.00;74.90
49579;DHT22;35483;50.828;3.228;2022-07-01T12:17:03;21.20;74.60
49579;DHT22;35483;50.828;3.228;2022-07-01T12:19:38;21.50;74.00
49579;DHT22;35483;50.828;3.228;2022-07-01T12:22:24;21.80;73.00
49579;DHT22;35483;50.828;3.228;2022-07-01T12:25:08;22.00;72.30
49579;DHT22;35483;50.828;3.228;2022-07-01T12:27:35;22.10;69.40
49579;DHT22;35483;50.828;3.228;2022-07-01T12:30:03;22.20;72.10
49579;DHT22;35483;50.828;3.228;2022-07-01T12:32:30;22.30;71.90
49579;DHT22;35483;50.828;3.228;2022-07-01T12:35:01;22.30;71.70
49579;DHT22;35483;50.828;3.228;2022-07-01T12:37:36;22.30;70.60
49579;DHT22;35483;50.828;3.228;2022-07-01T12:40:06;22.30;71.90
49579;DHT22;35483;50.828;3.228;2022-07-01T12:45:01;22.40;71.80
49579;DHT22;35483;50.828;3.228;2022-07-01T12:47:29;22.50;71.90
49579;DHT22;35483;50.828;3.228;2022-07-01T12:52:40;22.70;71.20
49579;DHT22;35483;50.828;3.228;2022-07-01T12:55:20;22.70;71.30
49579;DHT22;35483;50.828;3.228;2022-07-01T12:57:56;22.70;69.70
49579;DHT22;35483;50.828;3.228;2022-07-01T13:00:24;22.70;71.20
49579;DHT22;35483;50.828;3.228;2022-07-01T13:02:54;22.60;71.40
49579;DHT22;35483;50.828;3.228;2022-07-01T13:05:20;22.60;71.20
49579;DHT22;35483;50.828;3.228;2022-07-01T13:07:46;22.60;71.30
49579;DHT22;35483;50.828;3.228;2022-07-01T13:10:14;22.70;71.40
49579;DHT22;35483;50.828;3.228;2022-07-01T13:12:40;22.90;71.00
49579;DHT22;35483;50.828;3.228;2022-07-01T13:15:06;23.10;70.50
49579;DHT22;35483;50.828;3.228;2022-07-01T13:17:31;23.20;70.60
49579;DHT22;35483;50.828;3.228;2022-07-01T13:19:57;23.20;70.40
49579;DHT22;35483;50.828;3.228;2022-07-01T13:22:23;23.20;70.40
49579;DHT22;35483;50.828;3.228;2022-07-01T13:24:49;23.30;70.20
49579;DHT22;35483;50.828;3.228;2022-07-01T13:27:16;23.30;70.40
49579;DHT22;35483;50.828;3.228;2022-07-01T13:29:42;23.40;69.80
49579;DHT22;35483;50.828;3.228;2022-07-01T13:32:09;23.30;70.30
49579;DHT22;35483;50.828;3.228;2022-07-01T13:34:35;23.20;70.10
49579;DHT22;35483;50.828;3.228;2022-07-01T13:37:01;23.00;70.20
49579;DHT22;35483;50.828;3.228;2022-07-01T13:39:27;22.80;70.50
49579;DHT22;35483;50.828;3.228;2022-07-01T13:41:52;22.80;70.50
49579;DHT22;35483;50.828;3.228;2022-07-01T13:44:20;22.70;70.40
49579;DHT22;35483;50.828;3.228;2022-07-01T13:46:46;22.60;70.70
49579;DHT22;35483;50.828;3.228;2022-07-01T13:49:12;22.50;71.00
49579;DHT22;35483;50.828;3.228;2022-07-01T13:51:37;22.40;70.80
49579;DHT22;35483;50.828;3.228;2022-07-01T13:54:03;22.30;71.40
49579;DHT22;35483;50.828;3.228;2022-07-01T13:56:29;22.30;71.00
49579;DHT22;35483;50.828;3.228;2022-07-01T13:58:54;22.40;71.10
49579;DHT22;35483;50.828;3.228;2022-07-01T14:01:21;22.50;70.80
49579;DHT22;35483;50.828;3.228;2022-07-01T14:03:51;22.60;70.60
49579;DHT22;35483;50.828;3.228;2022-07-01T14:06:17;22.60;70.90
49579;DHT22;35483;50.828;3.228;2022-07-01T14:08:43;22.60;70.70
49579;DHT22;35483;50.828;3.228;2022-07-01T14:11:09;22.60;71.00
49579;DHT22;35483;50.828;3.228;2022-07-01T14:13:36;22.60;70.80
49579;DHT22;35483;50.828;3.228;2022-07-01T14:16:02;22.60;70.60
49579;DHT22;35483;50.828;3.228;2022-07-01T14:18:30;22.60;70.70
49579;DHT22;35483;50.828;3.228;2022-07-01T14:20:56;22.50;70.50
49579;DHT22;35483;50.828;3.228;2022-07-01T14:23:22;22.60;70.40
49579;DHT22;35483;50.828;3.228;2022-07-01T14:25:47;22.70;70.70
49579;DHT22;35483;50.828;3.228;2022-07-01T14:28:13;22.80;69.70
49579;DHT22;35483;50.828;3.228;2022-07-01T14:30:39;22.90;69.40
49579;DHT22;35483;50.828;3.228;2022-07-01T14:33:04;22.80;69.70
49579;DHT22;35483;50.828;3.228;2022-07-01T14:35:30;22.80;69.40
49579;DHT22;35483;50.828;3.228;2022-07-01T14:37:57;22.70;69.40
49579;DHT22;35483;50.828;3.228;2022-07-01T14:40:24;22.80;69.60
49579;DHT22;35483;50.828;3.228;2022-07-01T14:42:50;22.90;69.50
49579;DHT22;35483;50.828;3.228;2022-07-01T14:45:16;22.90;69.10
49579;DHT22;35483;50.828;3.228;2022-07-01T14:47:43;23.00;69.20
49579;DHT22;35483;50.828;3.228;2022-07-01T14:50:10;22.90;69.10
49579;DHT22;35483;50.828;3.228;2022-07-01T14:52:36;22.90;69.20
49579;DHT22;35483;50.828;3.228;2022-07-01T14:55:03;23.00;69.40
49579;DHT22;35483;50.828;3.228;2022-07-01T14:57:29;23.10;69.10
49579;DHT22;35483;50.828;3.228;2022-07-01T14:59:56;23.20;68.90
49579;DHT22;35483;50.828;3.228;2022-07-01T15:02:23;23.40;68.70
49579;DHT22;35483;50.828;3.228;2022-07-01T15:04:49;23.40;68.40
49579;DHT22;35483;50.828;3.228;2022-07-01T15:07:15;23.50;67.70
49579;DHT22;35483;50.828;3.228;2022-07-01T15:09:41;23.50;67.70
49579;DHT22;35483;50.828;3.228;2022-07-01T15:12:07;23.40;68.00
49579;DHT22;35483;50.828;3.228;2022-07-01T15:14:33;23.40;68.20
49579;DHT22;35483;50.828;3.228;2022-07-01T15:16:58;23.20;68.30
49579;DHT22;35483;50.828;3.228;2022-07-01T15:19:25;23.10;68.40
49579;DHT22;35483;50.828;3.228;2022-07-01T15:21:55;22.90;68.40
49579;DHT22;35483;50.828;3.228;2022-07-01T15:24:22;22.90;68.60
49579;DHT22;35483;50.828;3.228;2022-07-01T15:26:48;22.90;68.50
49579;DHT22;35483;50.828;3.228;2022-07-01T15:29:14;22.80;68.50
49579;DHT22;35483;50.828;3.228;2022-07-01T15:31:40;22.80;68.70
49579;DHT22;35483;50.828;3.228;2022-07-01T15:34:07;22.80;68.40
49579;DHT22;35483;50.828;3.228;2022-07-01T15:36:33;22.80;68.40
49579;DHT22;35483;50.828;3.228;2022-07-01T15:38:59;22.80;68.80
49579;DHT22;35483;50.828;3.228;2022-07-01T15:41:29;23.00;68.40
49579;DHT22;35483;50.828;3.228;2022-07-01T15:43:54;23.20;67.70
49579;DHT22;35483;50.828;3.228;2022-07-01T15:46:20;23.20;68.00
49579;DHT22;35483;50.828;3.228;2022-07-01T15:48:46;23.10;67.90
49579;DHT22;35483;50.828;3.228;2022-07-01T15:51:12;23.00;67.70
49579;DHT22;35483;50.828;3.228;2022-07-01T15:53:38;22.90;67.90
49579;DHT22;35483;50.828;3.228;2022-07-01T15:56:04;22.90;68.50
49579;DHT22;35483;50.828;3.228;2022-07-01T15:58:30;22.90;67.90
49579;DHT22;35483;50.828;3.228;2022-07-01T16:00:58;22.90;67.70
49579;DHT22;35483;50.828;3.228;2022-07-01T16:03:24;23.00;67.80
49579;DHT22;35483;50.828;3.228;2022-07-01T16:05:52;22.90;67.70